createdAt,value
2023-03-29T00:00:40.566Z,513.00
2023-03-29T00:01:40.566Z,505.00
2023-03-29T00:02:40.678Z,510.00
2023-03-29T00:03:40.646Z,510.00
2023-03-29T00:04:40.590Z,507.00
2023-03-29T00:05:40.546Z,503.00
2023-03-29T00:06:40.573Z,512.00
2023-03-29T00:07:40.532Z,509.00
2023-03-29T00:08:40.545Z,509.00
2023-03-29T00:09:40.557Z,508.00
2023-03-29T00:10:40.543Z,509.00
2023-03-29T00:11:40.585Z,508.00
2023-03-29T00:12:40.514Z,511.00
2023-03-29T00:13:40.506Z,510.00
2023-03-29T00:14:39.501Z,505.00
2023-03-29T00:15:40.502Z,506.00
2023-03-29T00:16:40.575Z,507.00
2023-03-29T00:17:40.555Z,512.00
2023-03-29T00:18:40.504Z,505.00
2023-03-29T00:19:40.511Z,506.00
2023-03-29T00:20:40.489Z,506.00
2023-03-29T00:21:39.492Z,505.00
2023-03-29T00:22:40.529Z,505.00
2023-03-29T00:23:40.491Z,505.00
2023-03-29T00:24:40.479Z,510.00
2023-03-29T00:25:40.475Z,505.00
2023-03-29T00:26:40.488Z,510.00
2023-03-29T00:27:40.484Z,507.00
2023-03-29T00:28:40.513Z,509.00
2023-03-29T00:29:40.478Z,508.00
2023-03-29T00:30:40.479Z,508.00
2023-03-29T00:31:40.484Z,508.00
2023-03-29T00:32:40.482Z,506.00
2023-03-29T00:33:40.467Z,508.00
2023-03-29T00:34:40.491Z,507.00
2023-03-29T00:35:40.483Z,510.00
2023-03-29T00:36:40.478Z,507.00
2023-03-29T00:37:40.451Z,506.00
2023-03-29T00:38:40.444Z,510.00
2023-03-29T00:39:40.433Z,511.00
2023-03-29T00:40:40.451Z,509.00
2023-03-29T00:41:39.428Z,508.00
2023-03-29T00:42:40.425Z,506.00
2023-03-29T00:43:40.432Z,510.00
2023-03-29T00:44:40.413Z,508.00
2023-03-29T00:45:40.395Z,507.00
2023-03-29T00:46:40.476Z,509.00
2023-03-29T00:47:39.411Z,508.00
2023-03-29T00:48:40.399Z,509.00
2023-03-29T00:49:40.413Z,510.00
2023-03-29T00:50:40.412Z,509.00
2023-03-29T00:51:40.399Z,505.00
2023-03-29T00:52:40.427Z,510.00
2023-03-29T00:53:39.404Z,506.00
2023-03-29T00:54:40.413Z,503.00
2023-03-29T00:55:40.396Z,512.00
2023-03-29T00:56:40.550Z,509.00
2023-03-29T00:57:40.379Z,506.00
2023-03-29T00:58:40.455Z,512.00
2023-03-29T00:59:40.385Z,505.00
2023-03-29T01:00:40.424Z,505.00
2023-03-29T01:01:40.463Z,505.00
2023-03-29T01:02:40.558Z,509.00
2023-03-29T01:03:39.468Z,506.00
2023-03-29T01:04:39.408Z,509.00
2023-03-29T01:05:40.477Z,506.00
2023-03-29T01:06:40.443Z,508.00
2023-03-29T01:07:39.411Z,511.00
2023-03-29T01:08:39.414Z,502.00
2023-03-29T01:09:40.428Z,503.00
2023-03-29T01:10:40.426Z,507.00
2023-03-29T01:11:40.446Z,500.00
2023-03-29T01:12:40.526Z,506.00
2023-03-29T01:13:39.450Z,504.00
2023-03-29T01:14:40.440Z,508.00
2023-03-29T01:15:40.470Z,512.00
2023-03-29T01:16:40.493Z,505.00
2023-03-29T01:17:40.559Z,505.00
2023-03-29T01:18:39.495Z,509.00
2023-03-29T01:19:40.489Z,508.00
2023-03-29T01:20:40.491Z,509.00
2023-03-29T01:21:40.493Z,504.00
2023-03-29T01:22:40.490Z,503.00
2023-03-29T01:23:40.523Z,505.00
2023-03-29T01:24:40.506Z,507.00
2023-03-29T01:25:40.495Z,514.00
2023-03-29T01:26:40.516Z,507.00
2023-03-29T01:27:40.503Z,505.00
2023-03-29T01:28:40.511Z,506.00
2023-03-29T01:29:40.499Z,513.00
2023-03-29T01:30:40.504Z,502.00
2023-03-29T01:31:40.568Z,503.00
2023-03-29T01:32:39.513Z,505.00
2023-03-29T01:33:40.526Z,510.00
2023-03-29T01:34:40.508Z,501.00
2023-03-29T01:35:40.547Z,508.00
2023-03-29T01:36:40.529Z,510.00
2023-03-29T01:37:39.542Z,505.00
2023-03-29T01:38:40.564Z,504.00
2023-03-29T01:39:40.534Z,506.00
2023-03-29T01:40:40.532Z,503.00
2023-03-29T01:41:40.592Z,513.00
2023-03-29T01:42:39.575Z,505.00
2023-03-29T01:43:40.582Z,506.00
2023-03-29T01:44:40.566Z,506.00
2023-03-29T01:45:40.646Z,505.00
2023-03-29T01:46:40.576Z,505.00
2023-03-29T01:47:40.605Z,505.00
2023-03-29T01:48:39.578Z,511.00
2023-03-29T01:49:40.588Z,506.00
2023-03-29T01:50:40.619Z,505.00
2023-03-29T01:51:39.589Z,505.00
2023-03-29T01:52:40.587Z,507.00
2023-03-29T01:53:40.589Z,510.00
2023-03-29T01:54:40.616Z,505.00
2023-03-29T01:55:39.565Z,512.00
2023-03-29T01:56:40.603Z,512.00
2023-03-29T01:57:40.639Z,504.00
2023-03-29T01:58:40.673Z,505.00
2023-03-29T01:59:40.704Z,502.00
2023-03-29T02:00:40.753Z,508.00
2023-03-29T02:01:40.888Z,512.00
2023-03-29T02:02:40.934Z,516.00
2023-03-29T02:03:39.953Z,515.00
2023-03-29T02:04:40.952Z,509.00
2023-03-29T02:05:41.007Z,518.00
2023-03-29T02:06:41.041Z,513.00
2023-03-29T02:07:41.056Z,515.00
2023-03-29T02:08:41.095Z,517.00
2023-03-29T02:09:41.164Z,520.00
2023-03-29T02:10:41.148Z,518.00
2023-03-29T02:11:41.170Z,523.00
2023-03-29T02:12:41.198Z,520.00
2023-03-29T02:13:41.205Z,514.00
2023-03-29T02:14:41.248Z,521.00
2023-03-29T02:15:41.295Z,516.00
2023-03-29T02:16:41.227Z,520.00
2023-03-29T02:17:41.237Z,524.00
2023-03-29T02:18:41.247Z,527.00
2023-03-29T02:19:40.248Z,523.00
2023-03-29T02:20:40.246Z,522.00
2023-03-29T02:21:41.267Z,524.00
2023-03-29T02:22:41.255Z,517.00
2023-03-29T02:23:41.245Z,516.00
2023-03-29T02:24:40.248Z,519.00
2023-03-29T02:25:41.247Z,523.00
2023-03-29T02:26:41.239Z,525.00
2023-03-29T02:27:40.267Z,526.00
2023-03-29T02:28:41.229Z,532.00
2023-03-29T02:29:41.278Z,523.00
2023-03-29T02:30:40.293Z,524.00
2023-03-29T02:31:41.417Z,519.00
2023-03-29T02:32:41.355Z,528.00
2023-03-29T02:33:41.419Z,529.00
2023-03-29T02:34:41.433Z,530.00
2023-03-29T02:35:40.507Z,524.00
2023-03-29T02:36:41.548Z,530.00
2023-03-29T02:37:41.608Z,529.00
2023-03-29T02:38:41.657Z,539.00
2023-03-29T02:39:41.768Z,535.00
2023-03-29T02:40:41.781Z,528.00
2023-03-29T02:41:41.863Z,530.00
2023-03-29T02:42:41.951Z,534.00
2023-03-29T02:43:42.082Z,529.00
2023-03-29T02:44:42.073Z,532.00
2023-03-29T02:45:42.111Z,533.00
2023-03-29T02:46:41.222Z,530.00
2023-03-29T02:47:42.226Z,536.00
2023-03-29T02:48:42.379Z,534.00
2023-03-29T02:49:42.351Z,536.00
2023-03-29T02:50:42.421Z,533.00
2023-03-29T02:51:41.468Z,530.00
2023-03-29T02:52:42.529Z,529.00
2023-03-29T02:53:42.567Z,536.00
2023-03-29T02:54:42.698Z,528.00
2023-03-29T02:55:42.686Z,531.00
2023-03-29T02:56:42.769Z,535.00
2023-03-29T02:57:42.788Z,533.00
2023-03-29T02:58:42.833Z,536.00
2023-03-29T02:59:41.891Z,534.00
2023-03-29T03:00:43.072Z,538.00
2023-03-29T03:01:42.059Z,535.00
2023-03-29T03:02:43.219Z,540.00
2023-03-29T03:03:42.122Z,535.00
2023-03-29T03:04:43.110Z,540.00
2023-03-29T03:05:42.336Z,542.00
2023-03-29T03:06:43.197Z,534.00
2023-03-29T03:07:43.263Z,535.00
2023-03-29T03:08:43.297Z,534.00
2023-03-29T03:09:43.339Z,534.00
2023-03-29T03:10:43.395Z,541.00
2023-03-29T03:11:43.445Z,537.00
2023-03-29T03:12:43.467Z,534.00
2023-03-29T03:13:43.520Z,533.00
2023-03-29T03:14:42.564Z,536.00
2023-03-29T03:15:43.626Z,536.00
2023-03-29T03:16:42.757Z,542.00
2023-03-29T03:17:43.718Z,539.00
2023-03-29T03:18:43.798Z,538.00
2023-03-29T03:19:43.782Z,534.00
2023-03-29T03:20:43.818Z,535.00
2023-03-29T03:21:42.870Z,533.00
2023-03-29T03:22:42.914Z,535.00
2023-03-29T03:23:43.944Z,538.00
2023-03-29T03:24:43.985Z,532.00
2023-03-29T03:25:44.081Z,537.00
2023-03-29T03:26:44.082Z,537.00
2023-03-29T03:27:44.148Z,537.00
2023-03-29T03:28:44.192Z,535.00
2023-03-29T03:29:44.234Z,539.00
2023-03-29T03:30:44.290Z,536.00
2023-03-29T03:31:44.411Z,534.00
2023-03-29T03:32:44.402Z,537.00
2023-03-29T03:33:44.436Z,533.00
2023-03-29T03:34:44.496Z,532.00
2023-03-29T03:35:44.586Z,537.00
2023-03-29T03:36:44.588Z,538.00
2023-03-29T03:37:43.646Z,536.00
2023-03-29T03:38:43.678Z,537.00
2023-03-29T03:39:44.734Z,533.00
2023-03-29T03:40:44.797Z,535.00
2023-03-29T03:41:44.830Z,531.00
2023-03-29T03:42:44.922Z,532.00
2023-03-29T03:43:44.949Z,531.00
2023-03-29T03:44:44.975Z,536.00
2023-03-29T03:45:45.047Z,531.00
2023-03-29T03:46:45.070Z,536.00
2023-03-29T03:47:45.135Z,531.00
2023-03-29T03:48:44.222Z,535.00
2023-03-29T03:49:44.229Z,536.00
2023-03-29T03:50:44.298Z,529.00
2023-03-29T03:51:45.350Z,534.00
2023-03-29T03:52:45.382Z,535.00
2023-03-29T03:53:45.426Z,533.00
2023-03-29T03:54:45.493Z,536.00
2023-03-29T03:55:45.565Z,537.00
2023-03-29T03:56:45.601Z,537.00
2023-03-29T03:57:44.639Z,534.00
2023-03-29T03:58:45.708Z,537.00
2023-03-29T03:59:44.750Z,529.00
2023-03-29T04:00:45.819Z,531.00
2023-03-29T04:01:45.844Z,534.00
2023-03-29T04:02:45.030Z,529.00
2023-03-29T04:03:46.082Z,529.00
2023-03-29T04:04:46.021Z,534.00
2023-03-29T04:05:46.080Z,530.00
2023-03-29T04:06:46.198Z,528.00
2023-03-29T04:07:46.191Z,526.00
2023-03-29T04:08:46.234Z,529.00
2023-03-29T04:09:46.306Z,532.00
2023-03-29T04:10:46.351Z,530.00
2023-03-29T04:11:46.417Z,532.00
2023-03-29T04:12:46.499Z,529.00
2023-03-29T04:13:46.544Z,529.00
2023-03-29T04:14:46.583Z,526.00
2023-03-29T04:15:45.690Z,521.00
2023-03-29T04:16:46.696Z,522.00
2023-03-29T04:17:46.783Z,529.00
2023-03-29T04:18:46.847Z,529.00
2023-03-29T04:19:46.866Z,524.00
2023-03-29T04:20:46.938Z,531.00
2023-03-29T04:21:46.969Z,527.00
2023-03-29T04:22:47.057Z,526.00
2023-03-29T04:23:47.079Z,527.00
2023-03-29T04:24:47.162Z,525.00
2023-03-29T04:25:47.218Z,525.00
2023-03-29T04:26:46.253Z,528.00
2023-03-29T04:27:46.341Z,523.00
2023-03-29T04:28:46.386Z,523.00
2023-03-29T04:29:47.478Z,529.00
2023-03-29T04:30:47.546Z,531.00
2023-03-29T04:31:46.587Z,525.00
2023-03-29T04:32:46.645Z,523.00
2023-03-29T04:33:47.694Z,527.00
2023-03-29T04:34:47.720Z,528.00
2023-03-29T04:35:47.888Z,534.00
2023-03-29T04:36:47.830Z,524.00
2023-03-29T04:37:46.878Z,527.00
2023-03-29T04:38:48.172Z,526.00
2023-03-29T04:39:46.973Z,525.00
2023-03-29T04:40:48.038Z,526.00
2023-03-29T04:41:48.086Z,529.00
2023-03-29T04:42:48.118Z,526.00
2023-03-29T04:43:48.213Z,525.00
2023-03-29T04:44:48.261Z,529.00
2023-03-29T04:45:47.290Z,528.00
2023-03-29T04:46:48.429Z,526.00
2023-03-29T04:47:48.548Z,526.00
2023-03-29T04:48:47.466Z,529.00
2023-03-29T04:49:47.626Z,530.00
2023-03-29T04:50:48.578Z,526.00
2023-03-29T04:51:48.628Z,525.00
2023-03-29T04:52:47.702Z,525.00
2023-03-29T04:53:48.732Z,528.00
2023-03-29T04:54:48.801Z,531.00
2023-03-29T04:55:48.816Z,531.00
2023-03-29T04:56:48.920Z,535.00
2023-03-29T04:57:48.914Z,527.00
2023-03-29T04:58:47.973Z,531.00
2023-03-29T04:59:49.001Z,527.00
2023-03-29T05:00:49.067Z,533.00
2023-03-29T05:01:49.148Z,530.00
2023-03-29T05:02:49.168Z,533.00
2023-03-29T05:03:49.237Z,529.00
2023-03-29T05:04:49.254Z,528.00
2023-03-29T05:05:49.279Z,526.00
2023-03-29T05:06:49.430Z,532.00
2023-03-29T05:12:48.518Z,530.00
2023-03-29T05:13:48.741Z,529.00
2023-03-29T05:14:48.698Z,533.00
2023-03-29T05:15:49.721Z,524.00
2023-03-29T05:16:49.712Z,527.00
2023-03-29T05:17:49.813Z,530.00
2023-03-29T05:18:49.771Z,535.00
2023-03-29T05:19:50.055Z,531.00
2023-03-29T05:20:49.994Z,529.00
2023-03-29T05:21:50.137Z,532.00
2023-03-29T05:22:50.106Z,537.00
2023-03-29T05:23:49.987Z,538.00
2023-03-29T05:24:50.087Z,533.00
2023-03-29T05:25:50.114Z,537.00
2023-03-29T05:28:49.964Z,543.00
2023-03-29T05:30:49.218Z,537.00
2023-03-29T05:31:50.284Z,547.00
2023-03-29T05:32:50.357Z,541.00
2023-03-29T05:33:50.306Z,551.00
2023-03-29T05:34:50.387Z,554.00
2023-03-29T05:35:50.390Z,553.00
2023-03-29T05:36:50.383Z,563.00
2023-03-29T05:37:50.457Z,564.00
2023-03-29T05:38:50.429Z,574.00
2023-03-29T05:41:49.514Z,587.00
2023-03-29T05:42:50.676Z,586.00
2023-03-29T05:44:49.542Z,602.00
2023-03-29T05:45:50.565Z,616.00
2023-03-29T05:46:50.915Z,621.00
2023-03-29T05:49:50.723Z,666.00
2023-03-29T05:50:51.004Z,721.00
2023-03-29T05:51:56.945Z,743.00
2023-03-29T05:52:50.572Z,745.00
2023-03-29T05:54:49.569Z,782.00
2023-03-29T05:55:50.533Z,826.00
2023-03-29T05:59:49.507Z,973.00
2023-03-29T06:00:50.606Z,995.00
2023-03-29T06:01:50.894Z,1001.00
2023-03-29T06:05:49.765Z,1035.00
2023-03-29T06:06:50.464Z,1029.00
2023-03-29T06:07:50.460Z,1039.00
2023-03-29T06:08:50.450Z,1041.00
2023-03-29T06:13:49.422Z,1044.00
2023-03-29T06:14:50.438Z,1030.00
2023-03-29T06:15:50.403Z,1043.00
2023-03-29T06:17:49.482Z,1028.00
2023-03-29T06:18:50.395Z,1036.00
2023-03-29T06:19:50.386Z,1022.00
2023-03-29T06:21:49.377Z,1019.00
2023-03-29T06:22:50.356Z,1013.00
2023-03-29T06:25:49.337Z,1004.00
2023-03-29T06:26:50.355Z,1004.00
2023-03-29T06:28:52.094Z,990.00
2023-03-29T06:29:50.308Z,994.00
2023-03-29T06:30:50.356Z,996.00
2023-03-29T06:32:49.343Z,1013.00
2023-03-29T06:33:50.320Z,996.00
2023-03-29T06:35:49.338Z,981.00
2023-03-29T06:36:50.264Z,976.00
2023-03-29T06:37:50.246Z,975.00
2023-03-29T06:38:50.262Z,974.00
2023-03-29T06:39:52.792Z,970.00
2023-03-29T06:43:49.199Z,975.00
2023-03-29T06:44:50.192Z,969.00
2023-03-29T06:45:50.230Z,954.00
2023-03-29T06:49:49.181Z,952.00
2023-03-29T06:50:50.140Z,949.00
2023-03-29T06:51:50.452Z,946.00
2023-03-29T06:56:49.432Z,950.00
2023-03-29T06:57:50.267Z,943.00
2023-03-29T06:58:50.093Z,922.00
2023-03-29T06:59:50.119Z,922.00
2023-03-29T07:00:49.094Z,924.00
2023-03-29T07:01:50.130Z,917.00
2023-03-29T07:02:50.193Z,912.00
2023-03-29T07:03:50.129Z,917.00
2023-03-29T07:06:49.062Z,931.00
2023-03-29T07:07:50.066Z,912.00
2023-03-29T07:09:49.004Z,910.00
2023-03-29T07:10:50.023Z,910.00
2023-03-29T07:11:50.037Z,908.00
2023-03-29T07:16:49.043Z,890.00
2023-03-29T07:17:50.048Z,905.00
2023-03-29T07:18:50.036Z,903.00
2023-03-29T07:20:48.929Z,904.00
2023-03-29T07:21:49.941Z,900.00
2023-03-29T07:24:48.897Z,922.00
2023-03-29T07:25:49.909Z,900.00
2023-03-29T07:27:03.334Z,902.00
2023-03-29T07:31:48.834Z,913.00
2023-03-29T07:32:49.949Z,918.00
2023-03-29T07:33:49.907Z,921.00
2023-03-29T07:34:49.844Z,905.00
2023-03-29T07:38:48.789Z,901.00
2023-03-29T07:39:49.782Z,908.00
2023-03-29T07:40:49.770Z,901.00
2023-03-29T07:46:48.799Z,917.00
2023-03-29T07:47:50.012Z,940.00
2023-03-29T07:49:48.699Z,949.00
2023-03-29T07:50:49.720Z,933.00
2023-03-29T07:55:48.657Z,1076.00
2023-03-29T07:56:49.731Z,1116.00
2023-03-29T07:58:48.638Z,1121.00
2023-03-29T07:59:48.644Z,1127.00
2023-03-29T08:04:48.611Z,927.00
2023-03-29T08:09:48.568Z,903.00
2023-03-29T08:10:49.572Z,940.00
2023-03-29T08:11:49.542Z,949.00
2023-03-29T08:12:49.541Z,936.00
2023-03-29T08:15:48.555Z,980.00
2023-03-29T08:16:48.544Z,1018.00
2023-03-29T08:17:48.577Z,1052.00
2023-03-29T08:18:49.525Z,1112.00
2023-03-29T08:19:51.012Z,1146.00
2023-03-29T08:23:48.504Z,1203.00
2023-03-29T08:24:49.513Z,1245.00
2023-03-29T08:25:48.520Z,1259.00
2023-03-29T08:26:49.507Z,1276.00
2023-03-29T08:27:49.522Z,1264.00
2023-03-29T08:28:49.487Z,1290.00
2023-03-29T08:29:49.500Z,1307.00
2023-03-29T08:30:49.542Z,1303.00
2023-03-29T08:31:49.453Z,1306.00
2023-03-29T08:35:48.514Z,1348.00
2023-03-29T08:36:49.423Z,1361.00
2023-03-29T08:37:49.416Z,1385.00
2023-03-29T08:38:48.438Z,1384.00
2023-03-29T08:39:49.409Z,1414.00
2023-03-29T08:43:48.383Z,1463.00
2023-03-29T08:44:49.369Z,1472.00
2023-03-29T08:45:50.915Z,1497.00
2023-03-29T08:46:49.397Z,1539.00
2023-03-29T08:47:49.538Z,1561.00
2023-03-29T08:49:48.346Z,1574.00
2023-03-29T08:50:49.322Z,1601.00
2023-03-29T08:51:49.352Z,1624.00
2023-03-29T08:55:48.301Z,1698.00
2023-03-29T08:56:49.316Z,1701.00
2023-03-29T08:57:49.533Z,1715.00
2023-03-29T08:59:48.276Z,1735.00
2023-03-29T09:00:49.258Z,1739.00
2023-03-29T09:01:49.336Z,1611.00
2023-03-29T09:05:48.245Z,623.00
2023-03-29T09:06:48.225Z,564.00
2023-03-29T09:10:48.220Z,498.00
2023-03-29T09:11:49.194Z,499.00
2023-03-29T09:12:49.252Z,500.00
2023-03-29T09:13:49.171Z,500.00
2023-03-29T09:17:49.589Z,500.00
2023-03-29T09:18:48.149Z,501.00
2023-03-29T09:19:49.261Z,500.00
2023-03-29T09:20:49.132Z,500.00
2023-03-29T09:22:48.102Z,500.00
2023-03-29T09:23:49.085Z,499.00
2023-03-29T09:24:49.082Z,500.00
2023-03-29T09:28:48.125Z,503.00
2023-03-29T09:29:48.051Z,505.00
2023-03-29T09:32:48.129Z,714.00
2023-03-29T09:33:49.045Z,775.00
2023-03-29T09:34:49.075Z,805.00
2023-03-29T09:35:49.129Z,843.00
2023-03-29T09:36:49.168Z,908.00
2023-03-29T09:38:48.249Z,989.00
2023-03-29T09:39:49.279Z,1008.00
2023-03-29T09:40:49.301Z,1071.00
2023-03-29T09:41:49.330Z,1102.00
2023-03-29T09:42:49.364Z,1123.00
2023-03-29T09:43:49.356Z,1164.00
2023-03-29T09:47:48.505Z,1303.00
2023-03-29T09:48:49.371Z,1358.00
2023-03-29T09:49:49.397Z,1359.00
2023-03-29T09:50:49.464Z,1055.00
2023-03-29T09:51:48.467Z,1038.00
2023-03-29T09:52:49.982Z,1139.00
2023-03-29T09:54:48.636Z,1276.00
2023-03-29T09:55:50.227Z,1318.00
2023-03-29T09:56:49.739Z,1347.00
2023-03-29T09:57:48.679Z,1375.00
2023-03-29T09:58:49.718Z,1411.00
2023-03-29T09:59:49.734Z,1458.00
2023-03-29T10:00:49.838Z,1448.00
2023-03-29T10:01:49.989Z,1491.00
2023-03-29T10:02:49.911Z,1534.00
2023-03-29T10:03:49.971Z,1566.00
2023-03-29T10:04:49.960Z,1582.00
2023-03-29T10:05:50.005Z,1670.00
2023-03-29T10:06:50.002Z,1673.00
2023-03-29T10:07:50.028Z,1702.00
2023-03-29T10:08:50.070Z,1737.00
2023-03-29T10:09:50.076Z,1764.00
2023-03-29T10:13:49.105Z,1897.00
2023-03-29T10:14:53.050Z,1931.00
2023-03-29T10:17:49.119Z,1968.00
2023-03-29T10:18:50.157Z,2014.00
2023-03-29T10:20:49.089Z,2098.00
2023-03-29T10:21:50.080Z,2128.00
2023-03-29T10:22:50.080Z,2142.00
2023-03-29T10:23:50.057Z,2163.00
2023-03-29T10:26:49.017Z,2220.00
2023-03-29T10:27:49.036Z,2226.00
2023-03-29T10:28:50.030Z,2261.00
2023-03-29T10:29:50.038Z,2281.00
2023-03-29T10:30:50.043Z,2298.00
2023-03-29T10:33:49.030Z,2345.00
2023-03-29T10:34:50.002Z,2355.00
2023-03-29T10:35:50.052Z,2395.00
2023-03-29T10:37:48.969Z,2447.00
2023-03-29T10:38:50.277Z,2454.00
2023-03-29T10:39:49.317Z,2477.00
2023-03-29T10:42:49.538Z,2531.00
2023-03-29T10:43:51.188Z,2541.00
2023-03-29T10:45:51.742Z,2557.00
2023-03-29T10:47:49.118Z,2557.00
2023-03-29T10:48:50.402Z,2563.00
2023-03-29T10:51:49.235Z,2593.00
2023-03-29T10:52:50.381Z,2593.00
2023-03-29T10:53:50.737Z,2567.00
2023-03-29T10:54:50.418Z,2554.00
2023-03-29T10:57:49.500Z,2550.00
2023-03-29T10:58:50.255Z,2557.00
2023-03-29T10:59:50.189Z,2552.00
2023-03-29T11:03:49.600Z,2532.00
2023-03-29T11:04:50.375Z,2503.00
2023-03-29T11:05:50.984Z,2527.00
2023-03-29T11:06:50.899Z,2506.00
2023-03-29T11:07:50.417Z,2507.00
2023-03-29T11:08:51.038Z,2511.00
2023-03-29T11:09:50.534Z,2499.00
2023-03-29T11:10:51.275Z,2503.00
2023-03-29T11:14:50.257Z,2473.00
2023-03-29T11:15:51.407Z,2497.00
2023-03-29T11:16:50.936Z,2455.00
2023-03-29T11:17:51.542Z,2458.00
2023-03-29T11:18:51.354Z,2483.00
2023-03-29T11:21:49.624Z,2456.00
2023-03-29T11:22:51.633Z,2488.00
2023-03-29T11:23:51.942Z,2488.00
2023-03-29T11:25:50.195Z,2433.00
2023-03-29T11:27:50.100Z,2434.00
2023-03-29T11:28:51.998Z,2396.00
2023-03-29T11:29:51.312Z,2425.00
2023-03-29T11:30:50.873Z,2426.00
2023-03-29T11:31:50.120Z,2428.00
2023-03-29T11:32:50.728Z,2403.00
2023-03-29T11:33:49.965Z,2438.00
2023-03-29T11:34:51.375Z,2418.00
2023-03-29T11:35:51.322Z,2412.00
2023-03-29T11:38:51.699Z,2372.00
2023-03-29T11:40:50.491Z,2386.00
2023-03-29T11:41:51.032Z,2358.00
2023-03-29T11:42:51.847Z,2395.00
2023-03-29T11:45:50.134Z,2357.00
2023-03-29T11:46:51.368Z,2354.00
2023-03-29T11:47:51.008Z,2320.00
2023-03-29T11:48:51.151Z,2361.00
2023-03-29T11:49:51.616Z,2366.00
2023-03-29T11:50:51.779Z,2373.00
2023-03-29T11:51:51.788Z,2333.00
2023-03-29T11:53:50.280Z,2329.00
2023-03-29T11:54:51.951Z,2332.00
2023-03-29T11:57:50.865Z,2327.00
2023-03-29T11:58:52.073Z,2331.00
2023-03-29T11:59:52.175Z,2329.00
2023-03-29T12:01:50.607Z,2325.00
2023-03-29T12:02:50.986Z,2313.00
2023-03-29T12:03:51.153Z,2311.00
2023-03-29T12:04:51.395Z,2282.00
2023-03-29T12:05:50.582Z,2188.00
2023-03-29T12:06:51.464Z,2082.00
2023-03-29T12:07:51.876Z,2121.00
2023-03-29T12:11:50.539Z,2146.00
2023-03-29T12:12:50.736Z,2171.00
2023-03-29T12:13:51.668Z,2145.00
2023-03-29T12:14:51.719Z,2147.00
2023-03-29T12:17:50.710Z,2143.00
2023-03-29T12:18:51.644Z,2203.00
2023-03-29T12:23:51.162Z,2253.00
2023-03-29T12:24:52.529Z,2272.00
2023-03-29T12:25:52.290Z,2293.00
2023-03-29T12:26:52.872Z,2299.00
2023-03-29T12:36:51.942Z,2414.00
2023-03-29T12:42:52.185Z,2472.00
2023-03-29T12:43:52.943Z,2448.00
2023-03-29T12:44:52.867Z,2453.00
2023-03-29T12:46:52.414Z,2467.00
2023-03-29T12:47:53.374Z,2459.00
2023-03-29T12:48:53.553Z,2467.00
2023-03-29T12:49:53.967Z,2479.00
2023-03-29T12:52:52.963Z,2447.00
2023-03-29T12:57:52.573Z,2444.00
2023-03-29T12:58:53.380Z,2442.00
2023-03-29T12:59:53.915Z,2424.00
2023-03-29T13:00:54.146Z,2421.00
2023-03-29T13:05:52.402Z,2381.00
2023-03-29T13:06:54.154Z,2393.00
2023-03-29T13:07:53.379Z,2394.00
2023-03-29T13:08:54.064Z,2383.00
2023-03-29T13:11:52.520Z,2368.00
2023-03-29T13:12:53.519Z,2365.00
2023-03-29T13:13:53.508Z,2373.00
2023-03-29T13:17:52.590Z,2346.00
2023-03-29T13:18:53.570Z,2372.00
2023-03-29T13:19:53.569Z,2370.00
2023-03-29T13:20:53.581Z,2365.00
2023-03-29T13:24:52.825Z,2369.00
2023-03-29T13:25:53.765Z,2365.00
2023-03-29T13:27:52.757Z,2376.00
2023-03-29T13:28:54.620Z,2366.00
2023-03-29T13:29:53.669Z,2367.00
2023-03-29T13:30:53.720Z,2378.00
2023-03-29T13:36:52.722Z,2382.00
2023-03-29T13:37:53.668Z,2389.00
2023-03-29T13:38:53.645Z,2410.00
2023-03-29T13:41:52.599Z,2407.00
2023-03-29T13:42:53.688Z,2411.00
2023-03-29T13:43:53.698Z,2408.00
2023-03-29T13:48:52.710Z,2393.00
2023-03-29T13:49:53.554Z,2390.00
2023-03-29T13:50:53.517Z,2382.00
2023-03-29T13:51:53.609Z,2382.00
2023-03-29T13:54:52.589Z,2369.00
2023-03-29T13:56:52.541Z,2356.00
2023-03-29T13:57:53.529Z,2364.00
2023-03-29T13:58:53.509Z,2344.00
2023-03-29T14:03:52.446Z,2344.00
2023-03-29T14:04:53.470Z,2341.00
2023-03-29T14:06:52.404Z,2319.00
2023-03-29T14:07:53.434Z,2323.00
2023-03-29T14:08:53.424Z,2308.00
2023-03-29T14:09:53.438Z,2304.00
2023-03-29T14:13:52.601Z,2260.00
2023-03-29T14:14:59.304Z,2279.00
2023-03-29T14:15:53.627Z,2279.00
2023-03-29T14:18:52.601Z,2234.00
2023-03-29T14:23:52.556Z,2210.00
2023-03-29T14:24:53.571Z,2218.00
2023-03-29T14:25:53.569Z,2227.00
2023-03-29T14:30:52.609Z,2193.00
2023-03-29T14:31:53.595Z,2204.00
2023-03-29T14:32:52.600Z,2191.00
2023-03-29T14:33:53.571Z,2210.00
2023-03-29T14:38:52.473Z,2193.00
2023-03-29T14:39:53.478Z,2190.00
2023-03-29T14:40:53.485Z,2188.00
2023-03-29T14:43:52.672Z,2181.00
2023-03-29T14:44:53.717Z,2192.00
2023-03-29T14:45:53.799Z,2187.00
2023-03-29T14:46:53.861Z,2181.00
2023-03-29T14:47:53.948Z,2161.00
2023-03-29T14:48:53.972Z,2173.00
2023-03-29T14:49:54.039Z,2163.00
2023-03-29T14:53:53.264Z,2169.00
2023-03-29T14:56:53.459Z,2159.00
2023-03-29T14:57:54.504Z,2116.00
2023-03-29T14:58:54.576Z,2141.00
2023-03-29T14:59:54.609Z,2140.00
2023-03-29T15:00:54.705Z,2141.00
2023-03-29T15:04:53.928Z,2118.00
2023-03-29T15:05:53.970Z,2111.00
2023-03-29T15:06:55.094Z,2122.00
2023-03-29T15:07:55.086Z,2113.00
2023-03-29T15:09:05.294Z,2098.00
2023-03-29T15:09:55.146Z,2099.00
2023-03-29T15:16:54.098Z,2078.00
2023-03-29T15:17:55.100Z,2085.00
2023-03-29T15:18:54.114Z,2078.00
2023-03-29T15:19:54.064Z,2091.00
2023-03-29T15:21:54.075Z,2042.00
2023-03-29T15:22:55.071Z,2070.00
2023-03-29T15:23:55.079Z,2033.00
2023-03-29T15:25:54.062Z,2061.00
2023-03-29T15:27:54.020Z,2053.00
2023-03-29T15:28:55.029Z,2041.00
2023-03-29T15:29:55.013Z,2034.00
2023-03-29T15:32:13.381Z,500.00
2023-03-29T15:33:14.258Z,500.00
2023-03-29T15:34:14.225Z,500.00
2023-03-29T15:35:14.193Z,500.00
2023-03-29T15:36:14.185Z,500.00
2023-03-29T15:37:14.106Z,500.00
2023-03-29T15:38:13.075Z,504.00
2023-03-29T15:39:14.044Z,508.00
2023-03-29T15:40:16.183Z,504.00
2023-03-29T15:41:14.679Z,504.00
2023-03-29T15:42:13.999Z,504.00
2023-03-29T15:43:14.153Z,490.00
2023-03-29T15:44:13.978Z,484.00
2023-03-29T15:45:13.004Z,490.00
2023-03-29T15:46:14.270Z,509.00
2023-03-29T15:47:12.975Z,503.00
2023-03-29T15:48:13.972Z,506.00
2023-03-29T15:49:13.979Z,510.00
2023-03-29T15:50:13.977Z,512.00
2023-03-29T15:51:13.969Z,510.00
2023-03-29T15:52:13.917Z,516.00
2023-03-29T15:53:15.735Z,517.00
2023-03-29T15:54:14.182Z,510.00
2023-03-29T15:55:13.993Z,522.00
2023-03-29T15:56:14.042Z,511.00
2023-03-29T15:57:14.067Z,502.00
2023-03-29T15:58:13.152Z,512.00
2023-03-29T15:59:13.977Z,502.00
2023-03-29T16:00:13.976Z,511.00
2023-03-29T16:01:13.934Z,506.00
2023-03-29T16:02:12.933Z,511.00
2023-03-29T16:03:13.978Z,512.00
2023-03-29T16:04:14.049Z,517.00
2023-03-29T16:05:13.863Z,517.00
2023-03-29T16:06:13.902Z,510.00
2023-03-29T16:07:13.919Z,517.00
2023-03-29T16:08:13.888Z,514.00
2023-03-29T16:09:12.802Z,503.00
2023-03-29T16:10:13.937Z,507.00
2023-03-29T16:11:13.952Z,517.00
2023-03-29T16:12:13.952Z,518.00
2023-03-29T16:13:13.825Z,520.00
2023-03-29T16:14:13.812Z,520.00
2023-03-29T16:15:13.821Z,507.00
2023-03-29T16:16:13.814Z,506.00
2023-03-29T16:17:13.755Z,518.00
2023-03-29T16:18:17.364Z,518.00
2023-03-29T16:19:13.945Z,518.00
2023-03-29T16:20:14.320Z,518.00
2023-03-29T16:21:13.750Z,517.00
2023-03-29T16:22:12.763Z,516.00
2023-03-29T16:23:12.793Z,511.00
2023-03-29T16:24:15.525Z,509.00
2023-03-29T16:25:13.971Z,509.00
2023-03-29T16:26:13.952Z,510.00
2023-03-29T16:27:14.958Z,509.00
2023-03-29T16:28:13.130Z,511.00
2023-03-29T16:29:12.791Z,508.00
2023-03-29T16:30:14.277Z,506.00
2023-03-29T16:31:13.825Z,506.00